Decoded Metar for KSFM (SANFORD MUNI in ME, USA) (IATA:SFM) | Meteo·Mobile Aviation Weather
aviador You're here:

KSFM Decoded Metar

SANFORD MUNI in ME, USA
Report Time2018-12-11 10:56:00
UTC Time2018-12-11 12:01:10
Flight Rules mvfr MVFR
WindCalm
Visibility9999 m
Phenomena:N/A
Clouds:Broken 026 Hf
Expected CloudBase > 800 ft AGL from Temp-Dew spread
Ceiling2,600 ft
Temp-14°C (ISA -29)
Dew Point-16°C (85% RH)
AAT-17.4°C
QNH1022 hPa
Density Alt-3,642 ft
Elevation243 ft
Report Wrong Elevation
Raw Report
KSFM 111056Z AUTO 00000KT 10SM BKN026 M14/M16 A3019 RMK AO2 SLP232
T11441156 FZRANO PNO $=

Extra information for KSFM:More info

Metar Taf Metar & Taf Last 4 Metars F.Rules Stats Wind Profile Meteogram Temp Stats Airport Information Weather charts Add Link Nearby VenuesMetar ALERT Operation Metar Decoded Social comments

AIRNAV info for KSFM